Date,TemperatureHighF,TemperatureAvgF,TemperatureLowF,DewpointHighF,DewpointAvgF,DewpointLowF,HumidityHigh,HumidityAvg,HumidityLow,PressureMaxIn,PressureMinIn,WindSpeedMaxMPH,WindSpeedAvgMPH,GustSpeedMaxMPH,PrecipitationSumIn
2014-2-1,58.6,43.9,27.6,40.9,29.6,21.8,83,61,30,30.25,30.11,2,0,0,0.00
2014-2-2,68.1,52.9,41.7,53.8,46.1,39.0,93,79,60,30.12,29.99,4,1,10,0.00
2014-2-3,67.7,58.0,45.8,61.7,51.2,39.5,97,80,52,30.22,29.85,6,2,0,0.19
2014-2-4,45.4,39.9,38.3,40.2,36.1,33.3,94,86,82,30.36,30.12,2,1,0,0.11
2014-2-5,59.5,44.6,38.4,51.6,40.4,31.9,96,86,58,30.09,29.83,4,1,7,0.12
2014-2-6,42.1,37.9,32.5,29.9,26.3,23.5,73,63,52,30.34,30.13,2,1,0,0.00
2014-2-7,51.9,42.6,35.3,35.1,30.7,26.8,77,64,48,30.36,30.24,2,0,5,0.00
2014-2-8,53.9,43.3,38.0,39.3,35.0,32.3,81,73,55,30.27,30.11,3,0,5,0.00
2014-2-9,59.8,46.5,35.7,42.7,37.8,32.8,90,73,51,30.16,29.95,6,1,7,0.00
2014-2-10,42.5,39.0,35.5,36.2,34.7,33.4,92,85,71,30.23,30.04,3,1,6,0.13
2014-2-11,37.7,34.6,31.7,32.8,28.4,23.7,91,78,70,30.38,30.23,3,1,8,0.00
2014-2-12,30.3,26.5,23.0,23.5,19.8,15.8,91,77,58,30.42,29.86,3,2,0,0.00
2014-2-13,33.0,30.1,26.1,31.5,28.3,23.8,94,93,91,29.85,29.62,3,2,0,0.00
2014-2-14,55.4,42.3,33.9,36.0,29.7,27.3,78,63,37,29.83,29.73,5,2,7,0.54
2014-2-15,48.4,41.9,31.4,39.0,29.0,18.3,92,63,33,30.08,29.56,7,2,14,0.08
2014-2-16,57.0,41.8,32.2,34.7,28.0,19.9,76,59,40,30.15,30.02,4,0,0,0.00
2014-2-17,49.9,41.5,34.4,32.0,29.2,25.4,83,62,45,30.36,30.16,2,0,6,0.00
2014-2-18,64.1,47.3,33.5,41.1,34.1,28.9,88,64,28,30.25,30.07,2,0,3,0.00
2014-2-19,73.5,57.6,48.2,60.9,52.2,41.0,95,83,54,30.06,29.90,8,2,11,0.25
2014-2-20,74.9,60.1,49.4,60.1,52.8,47.2,95,78,50,30.14,29.97,5,1,8,0.00
2014-2-21,64.1,60.0,48.7,60.4,49.6,24.8,94,72,31,30.00,29.80,12,2,17,0.63
2014-2-22,65.3,47.9,37.9,43.3,34.4,24.6,90,65,22,30.20,30.03,2,0,3,0.00
2014-2-23,69.0,53.7,39.8,45.0,39.0,33.1,84,60,32,30.10,29.89,1,0,7,0.00
2014-2-24,64.8,52.5,43.4,41.3,36.3,29.7,77,58,27,30.09,29.89,4,1,7,0.00
2014-2-25,61.6,48.0,38.3,32.0,26.8,22.4,62,44,31,30.09,29.91,4,1,5,0.00
2014-2-26,51.5,42.5,33.4,27.5,24.2,19.0,56,48,38,29.95,29.77,2,1,0,0.00
2014-2-27,56.5,40.0,27.7,23.6,16.7,8.5,67,43,16,29.97,29.79,7,2,15,0.00